Edgewater, New Jersey
Current Conditions -  °F | °C
As of 2:51 PM on Monday 24 Nov 2014 (Local Time) from KNYC Reporting Station
Clear Clear  
Wind Chill: 18°   Ceiling: Unl
Heat Index: 18°   Visibility: 10mi
Dew Point: 13°   Wind: 6mph
Humidity: 73%   Direction: NA
Pressure: 29.6"   Gusts: NA
Location:  40.83°N, 73.97°W
Report Text: KNYC 241951Z AUTO VRB05KT 10SM CLR 18/13 A2960 RMK AO2 SLP013 T01830133 $
Loading
Personal Weather Stations






























Interactive Weather Map New forecast layout! Learn more

10-Day Weather Forecast

Advertisements
Track Severe Weather on mobile